Terminal Aerodrome Forecast
Issued by NWS Green Bay, WI

Home | Current Version | Previous Version | Text Only | Print | Product List | Glossary Off
Versions: 1 2 3 4 5 6 7 8 9 10 11 12 13 14 15 16 17 18 19

000
FTUS43 KGRB 251134
TAFGRB
TAF
KGRB 251134Z 2512/2612 36007KT P6SM SCT060
     FM251500 02012G18KT P6SM BKN060
     FM251900 04010G17KT P6SM SCT070
     FM252300 06007KT P6SM SCT120
     FM260900 VRB03KT 3SM BR SKC
      TEMPO 2610/2612 1/2SM FG=

USA.gov is the U.S. government's official web portal to all federal, state and local government web resources and services.